sensor_id;sensor_type;location;lat;lon;timestamp;temperature;humidity
66375;DHT22;53173;52.176;5.314;2023-05-19T00:01:59;12.50;73.20
66375;DHT22;53173;52.176;5.314;2023-05-19T00:04:27;12.50;73.10
66375;DHT22;53173;52.176;5.314;2023-05-19T00:06:54;12.50;72.90
66375;DHT22;53173;52.176;5.314;2023-05-19T00:09:24;12.40;72.60
66375;DHT22;53173;52.176;5.314;2023-05-19T00:11:51;12.40;72.70
66375;DHT22;53173;52.176;5.314;2023-05-19T00:14:19;12.30;72.70
66375;DHT22;53173;52.176;5.314;2023-05-19T00:16:46;12.20;73.10
66375;DHT22;53173;52.176;5.314;2023-05-19T00:19:13;12.20;73.20
66375;DHT22;53173;52.176;5.314;2023-05-19T00:21:42;12.10;73.30
66375;DHT22;53173;52.176;5.314;2023-05-19T00:24:09;12.10;73.20
66375;DHT22;53173;52.176;5.314;2023-05-19T00:26:36;12.10;73.60
66375;DHT22;53173;52.176;5.314;2023-05-19T00:29:05;12.10;73.90
66375;DHT22;53173;52.176;5.314;2023-05-19T00:31:32;12.40;74.10
66375;DHT22;53173;52.176;5.314;2023-05-19T00:34:00;12.10;74.00
66375;DHT22;53173;52.176;5.314;2023-05-19T00:36:27;12.10;74.20
66375;DHT22;53173;52.176;5.314;2023-05-19T00:38:55;12.20;74.40
66375;DHT22;53173;52.176;5.314;2023-05-19T00:41:21;12.00;74.40
66375;DHT22;53173;52.176;5.314;2023-05-19T00:43:49;11.90;74.40
66375;DHT22;53173;52.176;5.314;2023-05-19T00:46:18;11.90;74.60
66375;DHT22;53173;52.176;5.314;2023-05-19T00:48:45;11.90;74.80
66375;DHT22;53173;52.176;5.314;2023-05-19T00:51:12;11.80;75.20
66375;DHT22;53173;52.176;5.314;2023-05-19T00:53:43;11.80;75.30
66375;DHT22;53173;52.176;5.314;2023-05-19T00:56:15;11.70;75.50
66375;DHT22;53173;52.176;5.314;2023-05-19T00:58:43;11.70;75.80
66375;DHT22;53173;52.176;5.314;2023-05-19T01:01:10;11.70;76.20
66375;DHT22;53173;52.176;5.314;2023-05-19T01:03:38;11.70;76.40
66375;DHT22;53173;52.176;5.314;2023-05-19T01:06:06;11.70;76.20
66375;DHT22;53173;52.176;5.314;2023-05-19T01:08:35;11.60;75.80
66375;DHT22;53173;52.176;5.314;2023-05-19T01:11:04;11.60;75.60
66375;DHT22;53173;52.176;5.314;2023-05-19T01:13:33;11.60;75.30
66375;DHT22;53173;52.176;5.314;2023-05-19T01:22:06;11.40;75.50
66375;DHT22;53173;52.176;5.314;2023-05-19T01:24:57;11.40;75.70
66375;DHT22;53173;52.176;5.314;2023-05-19T01:30:32;11.30;76.10
66375;DHT22;53173;52.176;5.314;2023-05-19T01:33:03;11.20;76.20
66375;DHT22;53173;52.176;5.314;2023-05-19T01:35:34;11.20;76.10
66375;DHT22;53173;52.176;5.314;2023-05-19T01:38:03;11.20;75.90
66375;DHT22;53173;52.176;5.314;2023-05-19T01:40:31;11.20;75.90
66375;DHT22;53173;52.176;5.314;2023-05-19T01:43:01;11.20;76.00
66375;DHT22;53173;52.176;5.314;2023-05-19T01:45:29;11.20;76.30
66375;DHT22;53173;52.176;5.314;2023-05-19T01:47:59;11.30;76.50
66375;DHT22;53173;52.176;5.314;2023-05-19T01:50:27;11.20;76.70
66375;DHT22;53173;52.176;5.314;2023-05-19T01:52:54;11.20;77.10
66375;DHT22;53173;52.176;5.314;2023-05-19T01:55:22;11.20;77.50
66375;DHT22;53173;52.176;5.314;2023-05-19T02:05:44;11.30;78.60
66375;DHT22;53173;52.176;5.314;2023-05-19T02:08:20;11.30;78.50
66375;DHT22;53173;52.176;5.314;2023-05-19T02:10:59;11.30;79.50
66375;DHT22;53173;52.176;5.314;2023-05-19T02:13:32;11.30;78.50
66375;DHT22;53173;52.176;5.314;2023-05-19T02:16:03;11.30;78.70
66375;DHT22;53173;52.176;5.314;2023-05-19T02:18:34;11.30;78.90
66375;DHT22;53173;52.176;5.314;2023-05-19T02:21:01;11.30;78.90
66375;DHT22;53173;52.176;5.314;2023-05-19T02:23:28;11.20;78.80
66375;DHT22;53173;52.176;5.314;2023-05-19T02:25:56;11.20;78.70
66375;DHT22;53173;52.176;5.314;2023-05-19T02:28:24;11.30;78.50
66375;DHT22;53173;52.176;5.314;2023-05-19T02:30:54;11.10;78.20
66375;DHT22;53173;52.176;5.314;2023-05-19T02:33:20;11.10;78.20
66375;DHT22;53173;52.176;5.314;2023-05-19T02:35:50;11.00;79.60
66375;DHT22;53173;52.176;5.314;2023-05-19T02:38:17;10.90;79.30
66375;DHT22;53173;52.176;5.314;2023-05-19T02:40:44;10.90;79.80
66375;DHT22;53173;52.176;5.314;2023-05-19T02:43:11;10.90;80.20
66375;DHT22;53173;52.176;5.314;2023-05-19T02:45:39;10.80;80.40
66375;DHT22;53173;52.176;5.314;2023-05-19T02:48:11;10.80;80.80
66375;DHT22;53173;52.176;5.314;2023-05-19T02:50:38;10.80;81.00
66375;DHT22;53173;52.176;5.314;2023-05-19T02:53:05;10.70;81.20
66375;DHT22;53173;52.176;5.314;2023-05-19T02:55:32;10.60;81.60
66375;DHT22;53173;52.176;5.314;2023-05-19T02:57:59;10.60;82.00
66375;DHT22;53173;52.176;5.314;2023-05-19T03:00:26;10.60;82.10
66375;DHT22;53173;52.176;5.314;2023-05-19T03:02:53;10.60;82.20
66375;DHT22;53173;52.176;5.314;2023-05-19T03:05:20;10.60;82.20
66375;DHT22;53173;52.176;5.314;2023-05-19T03:07:47;10.70;82.30
66375;DHT22;53173;52.176;5.314;2023-05-19T03:10:14;10.70;82.30
66375;DHT22;53173;52.176;5.314;2023-05-19T03:12:41;10.70;82.10
66375;DHT22;53173;52.176;5.314;2023-05-19T03:15:08;10.70;82.00
66375;DHT22;53173;52.176;5.314;2023-05-19T03:17:35;10.70;81.90
66375;DHT22;53173;52.176;5.314;2023-05-19T03:20:02;10.70;81.90
66375;DHT22;53173;52.176;5.314;2023-05-19T03:22:31;10.70;81.70
66375;DHT22;53173;52.176;5.314;2023-05-19T03:24:58;10.70;81.40
66375;DHT22;53173;52.176;5.314;2023-05-19T03:27:24;10.70;81.30
66375;DHT22;53173;52.176;5.314;2023-05-19T03:29:51;10.70;81.20
66375;DHT22;53173;52.176;5.314;2023-05-19T03:32:20;10.70;81.20
66375;DHT22;53173;52.176;5.314;2023-05-19T03:34:47;10.60;81.20
66375;DHT22;53173;52.176;5.314;2023-05-19T03:37:15;10.70;81.30
66375;DHT22;53173;52.176;5.314;2023-05-19T03:39:43;10.60;81.20
66375;DHT22;53173;52.176;5.314;2023-05-19T03:42:09;10.60;81.10
66375;DHT22;53173;52.176;5.314;2023-05-19T03:44:36;10.50;80.90
66375;DHT22;53173;52.176;5.314;2023-05-19T03:47:03;10.50;80.80
66375;DHT22;53173;52.176;5.314;2023-05-19T03:49:45;10.40;80.80
66375;DHT22;53173;52.176;5.314;2023-05-19T03:52:36;10.40;80.90
66375;DHT22;53173;52.176;5.314;2023-05-19T03:55:12;10.40;81.00
66375;DHT22;53173;52.176;5.314;2023-05-19T03:57:40;10.40;80.90
66375;DHT22;53173;52.176;5.314;2023-05-19T04:00:08;10.30;80.80
66375;DHT22;53173;52.176;5.314;2023-05-19T04:02:39;10.30;80.80
66375;DHT22;53173;52.176;5.314;2023-05-19T04:05:07;10.30;80.80
66375;DHT22;53173;52.176;5.314;2023-05-19T04:07:36;10.20;80.80
66375;DHT22;53173;52.176;5.314;2023-05-19T04:10:04;10.20;80.90
66375;DHT22;53173;52.176;5.314;2023-05-19T04:12:31;10.20;81.00
66375;DHT22;53173;52.176;5.314;2023-05-19T04:14:58;10.20;80.90
66375;DHT22;53173;52.176;5.314;2023-05-19T04:17:26;10.10;81.00
66375;DHT22;53173;52.176;5.314;2023-05-19T04:19:54;10.10;81.20
66375;DHT22;53173;52.176;5.314;2023-05-19T04:22:21;10.10;81.60
66375;DHT22;53173;52.176;5.314;2023-05-19T04:24:49;10.10;82.10
66375;DHT22;53173;52.176;5.314;2023-05-19T04:27:17;10.10;82.80
66375;DHT22;53173;52.176;5.314;2023-05-19T04:29:45;10.00;83.40
66375;DHT22;53173;52.176;5.314;2023-05-19T04:32:14;10.00;83.80
66375;DHT22;53173;52.176;5.314;2023-05-19T04:34:43;10.10;84.00
66375;DHT22;53173;52.176;5.314;2023-05-19T04:37:21;10.10;83.80
66375;DHT22;53173;52.176;5.314;2023-05-19T04:39:49;10.10;83.80
66375;DHT22;53173;52.176;5.314;2023-05-19T04:42:19;10.00;84.30
66375;DHT22;53173;52.176;5.314;2023-05-19T04:44:47;10.10;84.60
66375;DHT22;53173;52.176;5.314;2023-05-19T04:47:18;10.00;85.20
66375;DHT22;53173;52.176;5.314;2023-05-19T04:49:48;10.00;85.70
66375;DHT22;53173;52.176;5.314;2023-05-19T04:52:15;10.00;85.70
66375;DHT22;53173;52.176;5.314;2023-05-19T04:54:47;10.10;85.80
66375;DHT22;53173;52.176;5.314;2023-05-19T04:57:14;10.10;85.90
66375;DHT22;53173;52.176;5.314;2023-05-19T04:59:41;10.10;86.00
66375;DHT22;53173;52.176;5.314;2023-05-19T05:02:08;10.10;86.40
66375;DHT22;53173;52.176;5.314;2023-05-19T05:04:36;10.10;87.00
66375;DHT22;53173;52.176;5.314;2023-05-19T05:07:08;10.10;87.40
66375;DHT22;53173;52.176;5.314;2023-05-19T05:09:36;10.10;87.80
66375;DHT22;53173;52.176;5.314;2023-05-19T05:12:03;10.20;88.10
66375;DHT22;53173;52.176;5.314;2023-05-19T05:14:34;10.20;88.70
66375;DHT22;53173;52.176;5.314;2023-05-19T05:17:02;10.10;89.30
66375;DHT22;53173;52.176;5.314;2023-05-19T05:19:31;10.20;89.40
66375;DHT22;53173;52.176;5.314;2023-05-19T05:21:58;10.20;89.60
66375;DHT22;53173;52.176;5.314;2023-05-19T05:24:26;10.20;89.70
66375;DHT22;53173;52.176;5.314;2023-05-19T05:26:57;10.20;90.20
66375;DHT22;53173;52.176;5.314;2023-05-19T05:29:25;10.20;90.20
66375;DHT22;53173;52.176;5.314;2023-05-19T05:31:52;10.30;90.20
66375;DHT22;53173;52.176;5.314;2023-05-19T05:34:20;10.40;90.20
66375;DHT22;53173;52.176;5.314;2023-05-19T05:36:47;10.50;90.30
66375;DHT22;53173;52.176;5.314;2023-05-19T05:39:14;10.60;90.30
66375;DHT22;53173;52.176;5.314;2023-05-19T05:41:43;10.70;90.30
66375;DHT22;53173;52.176;5.314;2023-05-19T05:44:11;10.60;90.40
66375;DHT22;53173;52.176;5.314;2023-05-19T05:46:40;10.60;90.50
66375;DHT22;53173;52.176;5.314;2023-05-19T05:49:08;10.60;90.60
66375;DHT22;53173;52.176;5.314;2023-05-19T05:51:35;10.70;90.70
66375;DHT22;53173;52.176;5.314;2023-05-19T05:54:05;10.70;90.80
66375;DHT22;53173;52.176;5.314;2023-05-19T05:56:39;10.70;90.90
66375;DHT22;53173;52.176;5.314;2023-05-19T05:59:07;10.90;90.90
66375;DHT22;53173;52.176;5.314;2023-05-19T06:01:34;10.80;91.00
66375;DHT22;53173;52.176;5.314;2023-05-19T06:04:06;10.90;91.00
66375;DHT22;53173;52.176;5.314;2023-05-19T06:06:33;11.00;91.00
66375;DHT22;53173;52.176;5.314;2023-05-19T06:09:01;11.00;91.10
66375;DHT22;53173;52.176;5.314;2023-05-19T06:11:28;11.00;91.10
66375;DHT22;53173;52.176;5.314;2023-05-19T06:13:57;11.10;91.10
66375;DHT22;53173;52.176;5.314;2023-05-19T06:16:53;11.10;91.20
66375;DHT22;53173;52.176;5.314;2023-05-19T06:19:20;11.20;91.30
66375;DHT22;53173;52.176;5.314;2023-05-19T06:21:47;11.20;91.30
66375;DHT22;53173;52.176;5.314;2023-05-19T06:24:14;11.30;91.30
66375;DHT22;53173;52.176;5.314;2023-05-19T06:26:41;11.30;91.30
66375;DHT22;53173;52.176;5.314;2023-05-19T06:29:08;11.40;91.30
66375;DHT22;53173;52.176;5.314;2023-05-19T06:31:36;11.40;91.40
66375;DHT22;53173;52.176;5.314;2023-05-19T06:34:09;11.40;91.50
66375;DHT22;53173;52.176;5.314;2023-05-19T06:36:38;11.50;91.50
66375;DHT22;53173;52.176;5.314;2023-05-19T06:39:07;11.50;91.70
66375;DHT22;53173;52.176;5.314;2023-05-19T06:41:35;11.50;91.50
66375;DHT22;53173;52.176;5.314;2023-05-19T06:44:03;11.60;91.50
66375;DHT22;53173;52.176;5.314;2023-05-19T06:46:32;11.80;91.40
66375;DHT22;53173;52.176;5.314;2023-05-19T06:48:59;11.90;91.20
66375;DHT22;53173;52.176;5.314;2023-05-19T06:51:29;11.90;91.10
66375;DHT22;53173;52.176;5.314;2023-05-19T06:53:58;12.00;91.00
66375;DHT22;53173;52.176;5.314;2023-05-19T06:56:26;12.00;91.00
66375;DHT22;53173;52.176;5.314;2023-05-19T06:58:53;12.10;91.00
66375;DHT22;53173;52.176;5.314;2023-05-19T07:01:24;12.20;90.90
66375;DHT22;53173;52.176;5.314;2023-05-19T07:03:54;12.40;90.80
66375;DHT22;53173;52.176;5.314;2023-05-19T07:06:22;12.50;90.60
66375;DHT22;53173;52.176;5.314;2023-05-19T07:08:49;12.50;90.20
66375;DHT22;53173;52.176;5.314;2023-05-19T07:11:17;12.60;90.30
66375;DHT22;53173;52.176;5.314;2023-05-19T07:13:44;12.70;90.20
66375;DHT22;53173;52.176;5.314;2023-05-19T07:16:15;12.90;90.00
66375;DHT22;53173;52.176;5.314;2023-05-19T07:18:49;12.90;89.60
66375;DHT22;53173;52.176;5.314;2023-05-19T07:21:16;13.10;89.40
66375;DHT22;53173;52.176;5.314;2023-05-19T07:23:43;13.30;89.20
66375;DHT22;53173;52.176;5.314;2023-05-19T07:26:10;13.10;88.70
66375;DHT22;53173;52.176;5.314;2023-05-19T07:28:43;13.20;89.40
66375;DHT22;53173;52.176;5.314;2023-05-19T07:31:10;13.30;87.90
66375;DHT22;53173;52.176;5.314;2023-05-19T07:33:37;13.30;88.60
66375;DHT22;53173;52.176;5.314;2023-05-19T07:36:04;13.30;87.20
66375;DHT22;53173;52.176;5.314;2023-05-19T07:38:31;13.50;87.10
66375;DHT22;53173;52.176;5.314;2023-05-19T07:41:01;13.60;86.80
66375;DHT22;53173;52.176;5.314;2023-05-19T07:43:28;13.70;86.70
66375;DHT22;53173;52.176;5.314;2023-05-19T07:45:55;13.90;86.30
66375;DHT22;53173;52.176;5.314;2023-05-19T07:48:23;14.00;85.80
66375;DHT22;53173;52.176;5.314;2023-05-19T07:50:51;14.00;85.30
66375;DHT22;53173;52.176;5.314;2023-05-19T07:53:19;14.20;85.50
66375;DHT22;53173;52.176;5.314;2023-05-19T07:55:46;14.40;85.10
66375;DHT22;53173;52.176;5.314;2023-05-19T07:58:28;14.40;84.40
66375;DHT22;53173;52.176;5.314;2023-05-19T08:00:59;14.50;83.60
66375;DHT22;53173;52.176;5.314;2023-05-19T08:03:26;14.50;83.40
66375;DHT22;53173;52.176;5.314;2023-05-19T08:05:53;14.60;83.20
66375;DHT22;53173;52.176;5.314;2023-05-19T08:08:20;14.70;83.00
66375;DHT22;53173;52.176;5.314;2023-05-19T08:10:47;14.80;83.20
66375;DHT22;53173;52.176;5.314;2023-05-19T08:13:14;14.90;83.10
66375;DHT22;53173;52.176;5.314;2023-05-19T08:15:41;15.00;82.80
66375;DHT22;53173;52.176;5.314;2023-05-19T08:18:14;15.10;81.40
66375;DHT22;53173;52.176;5.314;2023-05-19T08:20:41;15.30;81.00
66375;DHT22;53173;52.176;5.314;2023-05-19T08:23:08;15.40;80.30
66375;DHT22;53173;52.176;5.314;2023-05-19T08:25:35;15.60;79.90
66375;DHT22;53173;52.176;5.314;2023-05-19T08:28:02;15.60;79.50
66375;DHT22;53173;52.176;5.314;2023-05-19T08:30:29;15.90;78.30
66375;DHT22;53173;52.176;5.314;2023-05-19T08:32:56;16.00;76.50
66375;DHT22;53173;52.176;5.314;2023-05-19T08:35:23;16.10;75.10
66375;DHT22;53173;52.176;5.314;2023-05-19T08:37:50;16.30;73.40
66375;DHT22;53173;52.176;5.314;2023-05-19T08:40:17;16.50;72.00
66375;DHT22;53173;52.176;5.314;2023-05-19T08:42:45;16.50;70.50
66375;DHT22;53173;52.176;5.314;2023-05-19T08:45:12;16.50;68.90
66375;DHT22;53173;52.176;5.314;2023-05-19T08:47:45;16.50;67.50
66375;DHT22;53173;52.176;5.314;2023-05-19T08:50:22;16.60;66.90
66375;DHT22;53173;52.176;5.314;2023-05-19T08:57:58;16.60;65.70
66375;DHT22;53173;52.176;5.314;2023-05-19T09:00:27;16.60;66.00
66375;DHT22;53173;52.176;5.314;2023-05-19T09:02:55;16.60;66.70
66375;DHT22;53173;52.176;5.314;2023-05-19T09:05:26;16.70;65.30
66375;DHT22;53173;52.176;5.314;2023-05-19T09:07:54;16.60;64.30
66375;DHT22;53173;52.176;5.314;2023-05-19T09:10:21;16.80;62.80
66375;DHT22;53173;52.176;5.314;2023-05-19T09:12:48;16.80;61.80
66375;DHT22;53173;52.176;5.314;2023-05-19T09:15:16;16.90;61.40
66375;DHT22;53173;52.176;5.314;2023-05-19T09:17:46;16.80;61.40
66375;DHT22;53173;52.176;5.314;2023-05-19T09:20:15;17.00;60.00
66375;DHT22;53173;52.176;5.314;2023-05-19T09:22:43;17.10;59.30
66375;DHT22;53173;52.176;5.314;2023-05-19T09:25:22;17.30;58.10
66375;DHT22;53173;52.176;5.314;2023-05-19T09:27:49;17.30;57.20
66375;DHT22;53173;52.176;5.314;2023-05-19T09:30:17;17.50;56.80
66375;DHT22;53173;52.176;5.314;2023-05-19T09:32:44;17.60;55.00
66375;DHT22;53173;52.176;5.314;2023-05-19T09:35:13;17.60;53.30
66375;DHT22;53173;52.176;5.314;2023-05-19T09:37:45;17.80;52.70
66375;DHT22;53173;52.176;5.314;2023-05-19T09:40:14;17.70;52.70
66375;DHT22;53173;52.176;5.314;2023-05-19T09:42:41;17.90;53.30
66375;DHT22;53173;52.176;5.314;2023-05-19T09:45:09;17.80;51.90
66375;DHT22;53173;52.176;5.314;2023-05-19T09:47:38;17.70;52.70
66375;DHT22;53173;52.176;5.314;2023-05-19T09:50:08;17.80;52.10
66375;DHT22;53173;52.176;5.314;2023-05-19T09:52:41;17.90;51.10
66375;DHT22;53173;52.176;5.314;2023-05-19T09:55:11;18.00;51.70
66375;DHT22;53173;52.176;5.314;2023-05-19T09:57:39;18.10;50.10
66375;DHT22;53173;52.176;5.314;2023-05-19T10:00:07;18.10;49.20
66375;DHT22;53173;52.176;5.314;2023-05-19T10:02:42;18.30;49.20
66375;DHT22;53173;52.176;5.314;2023-05-19T10:05:14;18.40;50.60
66375;DHT22;53173;52.176;5.314;2023-05-19T10:07:49;18.60;48.70
66375;DHT22;53173;52.176;5.314;2023-05-19T10:10:18;18.80;48.40
66375;DHT22;53173;52.176;5.314;2023-05-19T10:12:48;18.80;48.20
66375;DHT22;53173;52.176;5.314;2023-05-19T10:15:17;19.00;48.30
66375;DHT22;53173;52.176;5.314;2023-05-19T10:17:49;19.10;47.70
66375;DHT22;53173;52.176;5.314;2023-05-19T10:20:16;19.00;47.20
66375;DHT22;53173;52.176;5.314;2023-05-19T10:22:45;19.00;46.30
66375;DHT22;53173;52.176;5.314;2023-05-19T10:25:13;19.10;45.70
66375;DHT22;53173;52.176;5.314;2023-05-19T10:27:45;19.10;45.00
66375;DHT22;53173;52.176;5.314;2023-05-19T10:30:37;19.30;45.00
66375;DHT22;53173;52.176;5.314;2023-05-19T10:33:07;19.50;45.20
66375;DHT22;53173;52.176;5.314;2023-05-19T10:35:53;19.60;45.50
66375;DHT22;53173;52.176;5.314;2023-05-19T10:38:54;19.60;45.60
66375;DHT22;53173;52.176;5.314;2023-05-19T10:45:16;19.50;44.70
66375;DHT22;53173;52.176;5.314;2023-05-19T10:47:44;19.70;44.50
66375;DHT22;53173;52.176;5.314;2023-05-19T10:50:11;19.50;44.20
66375;DHT22;53173;52.176;5.314;2023-05-19T10:52:39;19.60;44.50
66375;DHT22;53173;52.176;5.314;2023-05-19T10:55:07;19.70;44.20
66375;DHT22;53173;52.176;5.314;2023-05-19T10:57:35;19.80;43.90
66375;DHT22;53173;52.176;5.314;2023-05-19T11:00:25;19.90;43.80
66375;DHT22;53173;52.176;5.314;2023-05-19T11:02:51;20.00;43.80
66375;DHT22;53173;52.176;5.314;2023-05-19T11:05:27;19.90;43.60
66375;DHT22;53173;52.176;5.314;2023-05-19T11:07:58;19.80;44.40
66375;DHT22;53173;52.176;5.314;2023-05-19T11:10:32;19.90;43.70
66375;DHT22;53173;52.176;5.314;2023-05-19T11:12:59;19.70;43.80
66375;DHT22;53173;52.176;5.314;2023-05-19T11:15:27;19.90;44.40
66375;DHT22;53173;52.176;5.314;2023-05-19T11:17:54;19.80;44.20
66375;DHT22;53173;52.176;5.314;2023-05-19T11:20:29;19.90;44.70
66375;DHT22;53173;52.176;5.314;2023-05-19T11:23:14;20.10;44.60
66375;DHT22;53173;52.176;5.314;2023-05-19T11:25:49;20.20;44.10
66375;DHT22;53173;52.176;5.314;2023-05-19T11:31:47;20.50;43.60
66375;DHT22;53173;52.176;5.314;2023-05-19T11:34:22;20.60;43.70
66375;DHT22;53173;52.176;5.314;2023-05-19T11:36:52;20.50;44.20
66375;DHT22;53173;52.176;5.314;2023-05-19T11:39:24;20.40;43.60
66375;DHT22;53173;52.176;5.314;2023-05-19T11:41:54;20.30;44.00
66375;DHT22;53173;52.176;5.314;2023-05-19T11:44:21;20.60;43.00
66375;DHT22;53173;52.176;5.314;2023-05-19T11:46:49;20.60;43.10
66375;DHT22;53173;52.176;5.314;2023-05-19T11:49:22;20.40;42.00
66375;DHT22;53173;52.176;5.314;2023-05-19T11:51:49;20.40;41.20
66375;DHT22;53173;52.176;5.314;2023-05-19T11:54:17;20.50;41.10
66375;DHT22;53173;52.176;5.314;2023-05-19T11:56:44;20.50;41.50
66375;DHT22;53173;52.176;5.314;2023-05-19T11:59:11;20.40;41.90
66375;DHT22;53173;52.176;5.314;2023-05-19T12:01:38;20.30;42.00
66375;DHT22;53173;52.176;5.314;2023-05-19T12:04:08;20.50;42.20
66375;DHT22;53173;52.176;5.314;2023-05-19T12:06:36;20.70;41.70
66375;DHT22;53173;52.176;5.314;2023-05-19T12:09:04;20.80;41.20
66375;DHT22;53173;52.176;5.314;2023-05-19T12:11:31;20.70;41.40
66375;DHT22;53173;52.176;5.314;2023-05-19T12:13:58;20.60;41.80
66375;DHT22;53173;52.176;5.314;2023-05-19T12:16:35;20.70;41.90
66375;DHT22;53173;52.176;5.314;2023-05-19T12:19:05;20.90;41.60
66375;DHT22;53173;52.176;5.314;2023-05-19T12:21:32;21.00;41.80
66375;DHT22;53173;52.176;5.314;2023-05-19T12:24:00;21.00;41.80
66375;DHT22;53173;52.176;5.314;2023-05-19T12:26:27;20.90;41.40
66375;DHT22;53173;52.176;5.314;2023-05-19T12:29:19;20.90;41.70
66375;DHT22;53173;52.176;5.314;2023-05-19T12:31:46;21.00;42.70
66375;DHT22;53173;52.176;5.314;2023-05-19T12:34:14;20.90;42.80
66375;DHT22;53173;52.176;5.314;2023-05-19T12:36:41;21.00;42.80
66375;DHT22;53173;52.176;5.314;2023-05-19T12:39:10;21.00;42.40
66375;DHT22;53173;52.176;5.314;2023-05-19T12:41:43;20.90;42.20
66375;DHT22;53173;52.176;5.314;2023-05-19T12:44:16;20.90;42.00
66375;DHT22;53173;52.176;5.314;2023-05-19T12:46:51;20.90;42.20
66375;DHT22;53173;52.176;5.314;2023-05-19T12:49:23;20.90;42.20
66375;DHT22;53173;52.176;5.314;2023-05-19T12:51:51;20.90;41.90
66375;DHT22;53173;52.176;5.314;2023-05-19T12:54:22;20.90;41.90
66375;DHT22;53173;52.176;5.314;2023-05-19T12:57:06;21.00;42.30
66375;DHT22;53173;52.176;5.314;2023-05-19T12:59:58;21.00;42.40
66375;DHT22;53173;52.176;5.314;2023-05-19T13:02:26;21.20;42.30
66375;DHT22;53173;52.176;5.314;2023-05-19T13:04:53;21.10;42.00
66375;DHT22;53173;52.176;5.314;2023-05-19T13:07:20;21.00;41.60
66375;DHT22;53173;52.176;5.314;2023-05-19T13:09:53;21.00;42.10
66375;DHT22;53173;52.176;5.314;2023-05-19T13:12:20;21.00;42.60
66375;DHT22;53173;52.176;5.314;2023-05-19T13:14:47;20.90;42.40
66375;DHT22;53173;52.176;5.314;2023-05-19T13:17:23;20.80;42.30
66375;DHT22;53173;52.176;5.314;2023-05-19T13:20:20;21.00;42.40
66375;DHT22;53173;52.176;5.314;2023-05-19T13:22:48;21.00;41.70
66375;DHT22;53173;52.176;5.314;2023-05-19T13:25:16;21.00;41.60
66375;DHT22;53173;52.176;5.314;2023-05-19T13:27:45;21.10;41.40
66375;DHT22;53173;52.176;5.314;2023-05-19T13:30:14;21.30;41.20
66375;DHT22;53173;52.176;5.314;2023-05-19T13:32:41;21.50;40.40
66375;DHT22;53173;52.176;5.314;2023-05-19T13:35:09;21.70;40.60
66375;DHT22;53173;52.176;5.314;2023-05-19T13:37:36;21.60;40.40
66375;DHT22;53173;52.176;5.314;2023-05-19T13:40:05;21.70;39.80
66375;DHT22;53173;52.176;5.314;2023-05-19T13:42:33;21.80;39.50
66375;DHT22;53173;52.176;5.314;2023-05-19T13:45:01;21.90;39.20
66375;DHT22;53173;52.176;5.314;2023-05-19T13:47:28;21.90;39.00
66375;DHT22;53173;52.176;5.314;2023-05-19T13:50:10;22.00;38.70
66375;DHT22;53173;52.176;5.314;2023-05-19T13:52:38;22.10;38.10
66375;DHT22;53173;52.176;5.314;2023-05-19T13:55:05;22.20;38.20
66375;DHT22;53173;52.176;5.314;2023-05-19T13:57:33;22.00;37.60
66375;DHT22;53173;52.176;5.314;2023-05-19T14:00:01;22.10;38.50
66375;DHT22;53173;52.176;5.314;2023-05-19T14:02:38;22.30;38.50
66375;DHT22;53173;52.176;5.314;2023-05-19T14:05:06;22.30;38.30
66375;DHT22;53173;52.176;5.314;2023-05-19T14:07:33;22.30;38.10
66375;DHT22;53173;52.176;5.314;2023-05-19T14:10:02;22.40;37.80
66375;DHT22;53173;52.176;5.314;2023-05-19T14:12:31;22.40;37.70
66375;DHT22;53173;52.176;5.314;2023-05-19T14:15:20;22.30;37.50
66375;DHT22;53173;52.176;5.314;2023-05-19T14:17:47;22.40;38.70
66375;DHT22;53173;52.176;5.314;2023-05-19T14:20:14;22.40;37.50
66375;DHT22;53173;52.176;5.314;2023-05-19T14:22:41;22.60;37.40
66375;DHT22;53173;52.176;5.314;2023-05-19T14:25:08;22.60;37.80
66375;DHT22;53173;52.176;5.314;2023-05-19T14:27:35;22.70;37.20
66375;DHT22;53173;52.176;5.314;2023-05-19T14:30:02;22.60;37.00
66375;DHT22;53173;52.176;5.314;2023-05-19T14:32:30;22.70;37.00
66375;DHT22;53173;52.176;5.314;2023-05-19T14:34:56;22.70;37.00
66375;DHT22;53173;52.176;5.314;2023-05-19T14:37:24;22.70;37.20
66375;DHT22;53173;52.176;5.314;2023-05-19T14:39:56;22.80;36.80
66375;DHT22;53173;52.176;5.314;2023-05-19T14:42:24;22.70;36.80
66375;DHT22;53173;52.176;5.314;2023-05-19T14:44:51;22.50;37.40
66375;DHT22;53173;52.176;5.314;2023-05-19T14:47:18;22.30;37.60
66375;DHT22;53173;52.176;5.314;2023-05-19T14:50:09;22.40;37.80
66375;DHT22;53173;52.176;5.314;2023-05-19T14:52:36;22.50;37.10
66375;DHT22;53173;52.176;5.314;2023-05-19T14:55:04;22.50;37.60
66375;DHT22;53173;52.176;5.314;2023-05-19T14:57:31;22.60;37.40
66375;DHT22;53173;52.176;5.314;2023-05-19T15:00:23;22.60;37.00
66375;DHT22;53173;52.176;5.314;2023-05-19T15:02:52;22.50;36.50
66375;DHT22;53173;52.176;5.314;2023-05-19T15:05:19;22.30;36.80
66375;DHT22;53173;52.176;5.314;2023-05-19T15:07:49;22.20;37.20
66375;DHT22;53173;52.176;5.314;2023-05-19T15:10:19;22.20;37.50
66375;DHT22;53173;52.176;5.314;2023-05-19T15:12:46;22.20;37.80
66375;DHT22;53173;52.176;5.314;2023-05-19T15:15:13;22.40;38.00
66375;DHT22;53173;52.176;5.314;2023-05-19T15:17:43;22.50;37.80
66375;DHT22;53173;52.176;5.314;2023-05-19T15:20:12;22.70;37.40
66375;DHT22;53173;52.176;5.314;2023-05-19T15:22:39;22.80;37.10
66375;DHT22;53173;52.176;5.314;2023-05-19T15:25:07;22.70;37.00
66375;DHT22;53173;52.176;5.314;2023-05-19T15:27:35;22.60;36.70
66375;DHT22;53173;52.176;5.314;2023-05-19T15:30:03;22.60;36.40
66375;DHT22;53173;52.176;5.314;2023-05-19T15:32:30;22.50;36.80
66375;DHT22;53173;52.176;5.314;2023-05-19T15:34:57;22.30;37.30
66375;DHT22;53173;52.176;5.314;2023-05-19T15:37:24;22.10;37.40
66375;DHT22;53173;52.176;5.314;2023-05-19T15:39:52;22.10;37.60
66375;DHT22;53173;52.176;5.314;2023-05-19T15:42:20;22.00;38.00
66375;DHT22;53173;52.176;5.314;2023-05-19T15:44:47;21.80;38.80
66375;DHT22;53173;52.176;5.314;2023-05-19T15:47:14;21.70;38.10
66375;DHT22;53173;52.176;5.314;2023-05-19T15:49:41;21.70;38.50
66375;DHT22;53173;52.176;5.314;2023-05-19T15:52:08;21.60;38.70
66375;DHT22;53173;52.176;5.314;2023-05-19T15:54:35;21.70;39.30
66375;DHT22;53173;52.176;5.314;2023-05-19T15:57:02;21.70;39.20
66375;DHT22;53173;52.176;5.314;2023-05-19T15:59:29;21.80;39.10
66375;DHT22;53173;52.176;5.314;2023-05-19T16:01:57;22.00;39.00
66375;DHT22;53173;52.176;5.314;2023-05-19T16:04:24;22.00;38.80
66375;DHT22;53173;52.176;5.314;2023-05-19T16:06:51;22.10;38.60
66375;DHT22;53173;52.176;5.314;2023-05-19T16:09:23;22.00;38.40
66375;DHT22;53173;52.176;5.314;2023-05-19T16:11:50;22.10;38.00
66375;DHT22;53173;52.176;5.314;2023-05-19T16:14:17;22.20;37.70